Latest Weather Observations for Mount William

IDV60801

Issued at 9:02 pm EDT Sunday 26 February 2017 (issued every 30 minutes, with the page automatically refreshed every 10 minutes)

About weather observations | Map of weather stations | Latest weather observations for VIC | Other Formats
Station Details ID: 079103 Name: MOUNT WILLIAM Lat: -37.30 Lon: 142.60 Height: 1150.0 m
Data from the previous 72 hours. | See also: Recent months at Mount William
Date/Time
EDT
Temp
°C
App
Temp
°C
Dew
Point
°C
Rel
Hum
%
Delta-T
°C
Wind Press
QNH
hPa
Press
MSL
hPa
Rain since
9am
mm
Dir  Spd
km/h
Gust
km/h
Spd
kts
Gust
kts
26/09:00pm 17.3 16.6 7.0 50 5.5 CALM 0 0 0 0 - - -
26/08:30pm 18.0 17.2 6.5 47 6.1 CALM 0 0 0 0 - - 0.2
26/08:00pm 19.5 18.8 6.9 44 6.7 CALM 0 0 0 0 - - 0.2
26/07:30pm 20.7 20.2 7.7 43 7.1 CALM 0 0 0 0 - - 0.2
26/07:00pm 21.4 20.8 7.3 40 7.7 CALM 0 0 0 0 - - 0.2
26/06:30pm 22.3 21.8 7.7 39 8.1 CALM 0 0 0 0 - - 0.2
26/06:00pm 22.6 22.2 8.3 40 8.0 CALM 0 0 0 0 - - 0.2
26/05:30pm 24.3 22.4 9.1 38 8.7 NNE 9 20 5 11 - - 0.2
26/05:00pm 22.0 21.7 8.5 42 7.5 CALM 0 0 0 0 - - 0.2
26/04:30pm 23.3 21.9 9.0 40 8.1 NNE 6 20 3 11 - - 0.2
26/04:00pm 23.6 21.9 9.9 42 7.9 NE 9 24 5 13 - - 0.2
26/03:30pm 22.9 20.3 10.7 46 7.1 NNE 15 28 8 15 - - 0.2
26/03:00pm 22.4 19.1 10.9 48 6.7 NNE 19 30 10 16 - - 0.2
26/02:30pm 21.6 18.4 10.1 48 6.6 NNE 17 30 9 16 - - 0.2
26/02:00pm 21.1 19.1 11.4 54 5.7 NE 13 22 7 12 - - 0.2
26/01:30pm 20.2 17.1 11.7 58 5.0 NNE 19 30 10 16 - - 0.2
26/01:00pm 19.3 15.7 11.8 62 4.4 NNE 22 33 12 18 - - 0.2
26/12:30pm 18.2 14.3 12.0 67 3.6 NNE 24 33 13 18 - - 0.2
26/12:00pm 16.9 12.9 11.8 72 2.9 NNE 24 33 13 18 - - 0.2
26/11:30am 16.2 11.9 12.0 76 2.4 NNE 26 37 14 20 - - 0.2
26/11:00am 15.4 10.7 12.0 80 2.0 NNE 28 37 15 20 - - 0.2
26/10:30am 14.0 7.7 11.2 83 1.6 NNE 35 52 19 28 - - 0.2
26/10:00am 13.2 6.1 10.9 86 1.3 NE 39 50 21 27 - - 0.2
26/09:30am 12.6 5.7 10.3 86 1.3 NE 37 41 20 22 - - 0.2
26/09:00am 12.3 5.3 10.0 86 1.3 NE 37 43 20 23 - - 0.2
26/08:30am 11.6 5.1 10.3 92 0.7 NE 35 39 19 21 - - 0.2
26/08:00am 10.1 3.4 9.6 97 0.3 ENE 35 43 19 23 - - 0.2
26/07:30am 8.6 1.6 8.5 99 0.1 ENE 35 44 19 24 - - 0.2
26/07:00am 8.0 0.9 7.9 99 0.1 ENE 35 44 19 24 - - 0.2
26/06:30am 7.7 1.4 7.6 99 0.1 E 30 43 16 23 - - 0.2
26/06:00am 7.5 2.0 7.4 99 0.1 ESE 26 39 14 21 - - 0.2
26/05:30am 7.5 1.6 7.4 99 0.1 ESE 28 39 15 21 - - 0.2
26/05:00am 7.8 1.0 7.7 99 0.1 SE 33 46 18 25 - - 0.2
26/04:30am 7.8 0.2 7.7 99 0.1 SE 37 48 20 26 - - 0.2
26/04:00am 8.1 -0.1 8.0 99 0.1 SE 41 56 22 30 - - 0.2
26/03:30am 8.4 0.6 8.3 99 0.1 SE 39 56 21 30 - - 0.0
26/03:00am 8.2 0.0 8.1 99 0.1 SSE 41 54 22 29 - - 0.0
26/02:30am 7.9 -0.8 7.8 99 0.1 SSE 43 56 23 30 - - 0.0
26/02:00am 7.2 -1.6 7.1 99 0.0 SSE 43 54 23 29 - - 0.0
26/01:30am 7.6 -0.8 7.5 99 0.1 SE 41 50 22 27 - - 0.0
26/01:00am 7.1 -1.4 7.0 99 0.0 SSE 41 50 22 27 - - 0.0
26/12:30am 5.5 -4.3 5.4 99 0.0 SSE 46 54 25 29 - - 0.0
26/12:00am 6.3 -2.9 6.2 99 0.0 SSE 44 59 24 32 - - 0.0
 
Date/Time
EDT
Temp
°C
App
Temp
°C
Dew
Point
°C
Rel
Hum
%
Delta-T
°C
Wind Press
QNH
hPa
Press
MSL
hPa
Rain since
9am
mm
Dir  Spd
km/h
Gust
km/h
Spd
kts
Gust
kts
25/11:30pm 6.7 -3.2 6.6 99 0.0 SSE 48 63 26 34 - - 0.0
25/11:00pm 6.7 -3.2 6.6 99 0.0 SSE 48 59 26 32 - - 0.0
25/10:30pm 6.5 -2.7 6.4 99 0.0 SSE 44 56 24 30 - - 0.0
25/10:00pm 6.6 -2.9 6.5 99 0.0 SSE 46 54 25 29 - - 0.0
25/09:30pm 6.2 -3.8 6.1 99 0.0 S 48 57 26 31 - - 0.0
25/09:00pm 6.2 -3.4 6.1 99 0.0 S 46 57 25 31 - - 0.0
25/08:30pm 6.4 -2.9 5.8 96 0.3 S 44 54 24 29 - - 0.0
25/08:00pm 7.0 -1.8 5.5 90 0.7 S 41 52 22 28 - - 0.0
25/07:30pm 8.0 -1.5 5.1 82 1.4 S 44 54 24 29 - - 0.0
25/07:00pm 9.0 0.0 4.8 75 2.0 S 41 50 22 27 - - 0.0
25/06:30pm 9.8 0.2 4.4 69 2.6 S 44 56 24 30 - - 0.0
25/06:00pm 10.4 1.3 4.1 65 3.0 S 41 54 22 29 - - 0.0
25/05:30pm 11.2 2.5 4.2 62 3.4 S 39 52 21 28 - - 0.0
25/05:00pm 11.6 3.2 3.9 59 3.7 S 37 50 20 27 - - 0.0
25/04:30pm 11.8 4.7 3.3 56 4.0 SSW 30 50 16 27 - - 0.0
25/04:02pm 12.4 5.7 3.6 55 4.2 S 28 46 15 25 - - 0.0
25/04:00pm 12.4 6.1 3.6 55 4.2 SSW 26 41 14 22 - - 0.0
25/03:47pm 12.1 5.3 3.3 55 4.2 SSW 28 48 15 26 - - 0.0
25/03:30pm 12.1 5.4 3.6 56 4.0 S 28 44 15 24 - - 0.0
25/03:03pm 12.0 5.2 3.3 55 4.1 S 28 48 15 26 - - 0.0
25/03:00pm 12.4 5.3 3.6 55 4.2 S 30 48 16 26 - - 0.0
25/02:58pm 12.4 6.1 3.6 55 4.2 S 26 48 14 26 - - 0.0
25/02:30pm 11.8 5.4 3.3 56 4.0 S 26 44 14 24 - - 0.0
25/02:00pm 11.2 3.8 4.2 62 3.4 S 32 46 17 25 - - 0.0
25/01:30pm 10.5 3.9 4.2 65 3.0 S 28 44 15 24 - - 0.0
25/01:00pm 9.7 1.9 4.7 71 2.4 S 35 48 19 26 - - 0.0
25/12:30pm 8.7 0.8 4.5 75 2.0 S 35 56 19 30 - - 0.0
25/12:00pm 7.6 -1.1 4.2 79 1.6 S 39 56 21 30 - - 0.0
25/11:30am 6.9 -3.0 4.9 87 0.9 SSE 46 59 25 32 - - 0.0
25/11:00am 5.5 -4.5 4.3 92 0.6 SSE 46 61 25 33 - - 0.0
25/10:30am 5.1 -5.9 5.0 99 0.0 S 52 65 28 35 - - 0.0
25/10:00am 5.1 -6.7 5.0 99 0.0 S 56 70 30 38 - - 0.0
25/09:30am 4.8 -7.0 4.7 99 0.0 S 56 69 30 37 - - 0.0
25/09:00am 4.8 -7.6 4.7 99 0.0 S 59 70 32 38 - - 0.2
25/08:30am 4.8 -7.2 4.7 99 0.0 S 57 69 31 37 - - 0.2
25/08:00am 3.9 -8.1 3.8 99 0.0 S 56 63 30 34 - - 0.2
25/07:30am 3.8 -8.2 3.7 99 0.0 S 56 65 30 35 - - 0.2
25/07:00am 4.0 -8.5 3.9 99 0.0 S 59 69 32 37 - - 0.2
25/06:30am 4.1 -8.8 4.0 99 0.0 S 61 69 33 37 - - 0.2
25/06:00am 4.0 -8.0 3.9 99 0.0 S 56 67 30 36 - - 0.2
25/05:30am 4.5 -7.0 4.4 99 0.0 S 54 61 29 33 - - 0.2
25/05:00am 4.7 -6.8 4.6 99 0.0 S 54 65 29 35 - - 0.2
25/04:30am 4.9 -6.5 4.8 99 0.0 S 54 63 29 34 - - 0.0
25/04:00am 4.6 -6.9 4.5 99 0.0 S 54 65 29 35 - - 0.0
25/03:30am 4.3 -7.2 4.2 99 0.0 S 54 61 29 33 - - 0.0
25/03:00am 5.1 -6.3 5.0 99 0.0 S 54 61 29 33 - - 0.0
25/02:30am 5.1 -5.9 5.0 99 0.0 S 52 59 28 32 - - 0.0
25/02:00am 5.5 -5.4 5.4 99 0.0 S 52 61 28 33 - - 0.0
25/01:30am 5.5 -5.0 5.4 99 0.0 S 50 59 27 32 - - 0.0
25/01:00am 5.8 -4.7 5.7 99 0.0 S 50 59 27 32 - - 0.0
25/12:30am 6.3 -4.1 6.2 99 0.0 S 50 57 27 31 - - 0.0
25/12:00am 5.9 -4.2 5.8 99 0.0 S 48 57 26 31 - - 0.0
 
Date/Time
EDT
Temp
°C
App
Temp
°C
Dew
Point
°C
Rel
Hum
%
Delta-T
°C
Wind Press
QNH
hPa
Press
MSL
hPa
Rain since
9am
mm
Dir  Spd
km/h
Gust
km/h
Spd
kts
Gust
kts
24/11:30pm 6.2 -3.4 6.1 99 0.0 S 46 56 25 30 - - 0.0
24/11:00pm 6.3 -4.1 6.2 99 0.0 S 50 57 27 31 - - 0.0
24/10:30pm 6.3 -4.1 6.2 99 0.0 S 50 59 27 32 - - 0.0
24/10:00pm 6.4 -4.4 6.0 97 0.2 S 52 63 28 34 - - 0.0
24/09:30pm 6.5 -4.3 5.8 95 0.3 S 52 63 28 34 - - 0.0
24/09:00pm 6.7 -3.7 6.1 96 0.3 S 50 59 27 32 - - 0.0
24/08:30pm 7.2 -3.7 5.7 90 0.7 S 52 59 28 32 - - 0.0
24/08:00pm 8.0 -2.1 5.5 84 1.2 S 48 59 26 32 - - 0.0
24/07:30pm 8.8 0.0 5.7 81 1.5 S 41 52 22 28 - - 0.0
24/07:00pm 9.1 1.2 6.0 81 1.5 S 37 54 20 29 - - 0.0
24/06:30pm 9.8 1.5 6.3 79 1.7 S 39 50 21 27 - - 0.0
24/06:11pm 9.9 3.0 6.4 79 1.7 S 32 54 17 29 - - 0.0
24/06:00pm 9.6 3.1 6.5 81 1.5 SSW 30 43 16 23 - - 0.0
24/05:30pm 10.6 4.6 6.9 78 1.9 S 28 41 15 22 - - 0.0
24/05:00pm 11.3 5.7 7.0 75 2.2 S 26 37 14 20 - - 0.0
24/04:30pm 12.5 7.5 6.3 66 3.1 S 22 41 12 22 - - 0.0
24/04:00pm 12.2 7.7 6.9 70 2.7 SSW 20 41 11 22 - - 0.0
24/03:30pm 12.8 8.4 7.3 69 2.8 SSW 20 39 11 21 - - 0.0
24/03:00pm 12.4 8.4 6.5 67 3.0 SSW 17 35 9 19 - - 0.0
24/02:30pm 11.4 5.7 6.7 73 2.4 SSW 26 39 14 21 - - 0.0
24/02:00pm 12.4 8.2 7.3 71 2.6 SSW 19 33 10 18 - - 0.0
24/01:30pm 11.1 6.6 7.0 76 2.1 SW 20 41 11 22 - - 0.0
24/01:00pm 11.3 7.5 7.4 77 2.0 SW 17 32 9 17 - - 0.0
24/12:30pm 10.6 5.0 7.1 79 1.8 SSW 26 41 14 22 - - 0.0
24/12:00pm 10.4 5.6 7.3 81 1.6 SSW 22 35 12 19 - - 0.0
24/11:30am 9.7 5.8 7.0 83 1.4 SW 17 24 9 13 - - 0.0
24/11:00am 8.5 2.4 6.6 88 0.9 S 28 39 15 21 - - 0.0
24/10:30am 7.6 1.4 6.2 91 0.7 SSW 28 43 15 23 - - 0.0
24/10:00am 6.6 0.0 5.9 95 0.3 S 30 39 16 21 - - 0.0
24/09:30am 6.2 -0.5 5.8 97 0.2 S 30 41 16 22 - - 0.0
24/09:00am 5.5 -2.6 5.4 99 0.0 S 37 50 20 27 - - 0.4
24/08:30am 5.1 -3.1 5.0 99 0.0 S 37 48 20 26 - - 0.4
24/08:00am 4.9 -1.6 4.8 99 0.0 SSW 28 37 15 20 - - 0.4
24/07:30am 4.9 -2.3 4.8 99 0.0 S 32 37 17 20 - - 0.4
24/07:00am 5.3 -1.9 5.2 99 0.0 SSW 32 39 17 21 - - 0.4
24/06:30am 5.7 -1.4 5.6 99 0.0 S 32 39 17 21 - - 0.2
24/06:00am 5.7 -1.0 5.6 99 0.0 S 30 41 16 22 - - 0.2
24/05:30am 6.1 -0.1 6.0 99 0.0 SSW 28 32 15 17 - - 0.2
24/05:00am 6.2 1.1 6.1 99 0.0 SSW 22 28 12 15 - - 0.2
24/04:30am 6.8 1.5 6.7 99 0.0 SW 24 30 13 16 - - 0.2
24/04:00am 7.1 2.2 7.0 99 0.0 SW 22 26 12 14 - - 0.2
24/03:30am 7.0 2.7 6.9 99 0.0 SW 19 24 10 13 - - 0.2
24/03:00am 7.3 3.0 7.2 99 0.0 SW 19 22 10 12 - - 0.2
24/02:30am 7.4 3.0 7.3 99 0.0 SW 20 26 11 14 - - 0.2
24/02:00am 7.5 2.3 7.4 99 0.1 SW 24 33 13 18 - - 0.2
24/01:30am 7.9 2.5 7.8 99 0.1 SW 26 32 14 17 - - 0.2
24/01:00am 8.1 2.7 8.0 99 0.1 SW 26 32 14 17 - - 0.2
24/12:30am 8.4 5.2 8.3 99 0.1 SW 15 20 8 11 - - 0.2
24/12:00am 8.8 3.2 8.7 99 0.1 SW 28 32 15 17 - - 0.2
 
Date/Time
EDT
Temp
°C
App
Temp
°C
Dew
Point
°C
Rel
Hum
%
Delta-T
°C
Wind Press
QNH
hPa
Press
MSL
hPa
Rain since
9am
mm
Dir  Spd
km/h
Gust
km/h
Spd
kts
Gust
kts
23/11:30pm 9.3 5.0 9.2 99 0.1 WSW 22 26 12 14 - - 0.2
23/11:00pm 9.5 5.2 9.4 99 0.1 WSW 22 26 12 14 - - 0.2
23/10:30pm 9.9 5.3 9.8 99 0.1 WSW 24 28 13 15 - - 0.2
23/10:00pm 10.2 6.5 10.1 99 0.1 SW 20 24 11 13 - - 0.2
23/09:30pm 10.3 7.1 10.1 99 0.1 SW 17 20 9 11 - - 0.2

Other Formats:

Comma delimited format used in spreadsheet applications
http://www.bom.gov.au/fwo/IDV60801/IDV60801.94833.axf

JavaScript Object Notation format (JSON) in row-major order
http://www.bom.gov.au/fwo/IDV60801/IDV60801.94833.json